createdAt,value
2018-07-07T00:00:40.505Z,18.90
2018-07-07T00:03:09.563Z,18.84
2018-07-07T00:05:41.012Z,18.75
2018-07-07T00:08:10.137Z,18.75
2018-07-07T00:10:39.157Z,18.68
2018-07-07T00:13:08.257Z,18.88
2018-07-07T00:15:37.405Z,18.68
2018-07-07T00:18:08.101Z,18.66
2018-07-07T00:20:37.204Z,18.62
2018-07-07T00:23:06.137Z,18.54
2018-07-07T00:25:35.156Z,18.40
2018-07-07T00:28:04.256Z,18.33
2018-07-07T00:30:33.367Z,18.25
2018-07-07T00:33:02.398Z,18.21
2018-07-07T00:35:31.486Z,18.14
2018-07-07T00:38:00.676Z,18.10
2018-07-07T00:40:29.707Z,18.06
2018-07-07T00:42:58.691Z,17.91
2018-07-07T00:45:27.670Z,17.86
2018-07-07T00:47:58.384Z,17.81
2018-07-07T00:50:25.713Z,17.81
2018-07-07T00:52:57.806Z,17.75
2018-07-07T00:55:26.358Z,17.68
2018-07-07T00:57:55.277Z,17.60
2018-07-07T01:00:24.654Z,17.59
2018-07-07T01:02:53.708Z,17.55
2018-07-07T01:05:35.708Z,17.55
2018-07-07T01:08:04.892Z,17.56
2018-07-07T01:10:33.914Z,17.46
2018-07-07T01:13:02.992Z,17.66
2018-07-07T01:15:31.964Z,17.39
2018-07-07T01:18:01.064Z,17.26
2018-07-07T01:20:30.035Z,17.54
2018-07-07T01:23:01.534Z,17.25
2018-07-07T01:25:30.518Z,17.20
2018-07-07T01:27:59.678Z,17.14
2018-07-07T01:30:31.492Z,17.07
2018-07-07T01:33:00.621Z,17.01
2018-07-07T01:35:29.785Z,16.94
2018-07-07T01:38:01.898Z,16.91
2018-07-07T01:40:30.994Z,16.83
2018-07-07T01:43:01.743Z,16.82
2018-07-07T01:45:29.182Z,17.09
2018-07-07T01:47:58.271Z,16.95
2018-07-07T01:50:27.252Z,16.90
2018-07-07T01:52:56.225Z,16.81
2018-07-07T01:55:25.292Z,16.74
2018-07-07T01:57:54.337Z,16.94
2018-07-07T02:00:23.584Z,16.59
2018-07-07T02:02:52.441Z,16.50
2018-07-07T02:05:21.472Z,16.47
2018-07-07T02:07:50.540Z,16.41
2018-07-07T02:10:19.583Z,16.34
2018-07-07T02:12:48.525Z,16.29
2018-07-07T02:15:17.542Z,16.18
2018-07-07T02:17:46.509Z,16.13
2018-07-07T02:20:15.469Z,16.02
2018-07-07T02:22:46.115Z,15.91
2018-07-07T02:25:15.227Z,15.87
2018-07-07T02:27:44.369Z,15.79
2018-07-07T02:30:13.507Z,15.74
2018-07-07T02:32:42.581Z,15.77
2018-07-07T02:35:11.636Z,15.77
2018-07-07T02:37:40.635Z,15.72
2018-07-07T02:40:11.850Z,15.76
2018-07-07T02:42:41.006Z,15.79
2018-07-07T02:45:12.533Z,15.69
2018-07-07T02:47:41.526Z,15.62
2018-07-07T02:50:10.575Z,15.65
2018-07-07T02:52:39.717Z,15.70
2018-07-07T02:55:08.873Z,15.70
2018-07-07T02:57:38.071Z,15.87
2018-07-07T03:00:07.189Z,15.64
2018-07-07T03:02:38.110Z,15.56
2018-07-07T03:05:07.091Z,15.51
2018-07-07T03:07:36.007Z,15.79
2018-07-07T03:10:07.553Z,15.88
2018-07-07T03:12:36.608Z,15.62
2018-07-07T03:15:05.705Z,15.58
2018-07-07T03:17:34.680Z,15.49
2018-07-07T03:20:03.712Z,15.54
2018-07-07T03:22:32.767Z,15.48
2018-07-07T03:25:01.773Z,15.34
2018-07-07T03:27:31.026Z,15.24
2018-07-07T03:30:00.144Z,15.14
2018-07-07T03:32:29.166Z,15.06
2018-07-07T03:34:58.143Z,15.01
2018-07-07T03:37:27.087Z,15.01
2018-07-07T03:39:56.114Z,15.00
2018-07-07T03:42:25.161Z,14.99
2018-07-07T03:44:54.287Z,14.87
2018-07-07T03:47:23.337Z,14.79
2018-07-07T03:49:52.255Z,14.80
2018-07-07T03:52:21.376Z,14.80
2018-07-07T03:54:50.406Z,14.83
2018-07-07T03:57:21.777Z,14.84
2018-07-07T03:59:50.828Z,14.87
2018-07-07T04:02:19.901Z,14.82
2018-07-07T04:04:48.854Z,14.80
2018-07-07T04:07:17.902Z,14.72
2018-07-07T04:09:46.918Z,14.70
2018-07-07T04:12:15.950Z,14.77
2018-07-07T04:14:44.848Z,14.72
2018-07-07T04:17:13.895Z,14.73
2018-07-07T04:19:42.928Z,14.74
2018-07-07T04:22:12.003Z,14.78
2018-07-07T04:24:40.939Z,15.16
2018-07-07T04:27:09.895Z,14.98
2018-07-07T04:29:38.965Z,14.92
2018-07-07T04:32:10.504Z,14.97
2018-07-07T04:34:39.634Z,15.00
2018-07-07T04:37:08.622Z,15.10
2018-07-07T04:39:40.420Z,15.12
2018-07-07T04:42:09.409Z,15.16
2018-07-07T04:44:38.349Z,15.18
2018-07-07T04:47:07.421Z,15.16
2018-07-07T04:49:36.516Z,15.20
2018-07-07T04:52:08.110Z,15.26
2018-07-07T04:54:40.672Z,15.28
2018-07-07T04:57:09.644Z,15.65
2018-07-07T04:59:38.646Z,15.51
2018-07-07T05:02:07.764Z,15.55
2018-07-07T05:04:36.861Z,15.57
2018-07-07T05:07:05.704Z,15.54
2018-07-07T05:09:34.765Z,15.63
2018-07-07T05:12:03.891Z,15.72
2018-07-07T05:14:35.517Z,15.83
2018-07-07T05:17:07.120Z,15.87
2018-07-07T05:19:36.165Z,15.92
2018-07-07T05:22:05.253Z,15.99
2018-07-07T05:24:34.163Z,16.03
2018-07-07T05:27:03.174Z,16.14
2018-07-07T05:29:32.430Z,16.28
2018-07-07T05:32:01.450Z,16.38
2018-07-07T05:34:30.470Z,16.46
2018-07-07T05:36:59.502Z,16.52
2018-07-07T05:39:28.605Z,16.62
2018-07-07T05:41:57.603Z,16.76
2018-07-07T05:44:26.709Z,16.87
2018-07-07T05:46:55.615Z,17.00
2018-07-07T05:49:24.545Z,17.12
2018-07-07T05:51:53.617Z,17.24
2018-07-07T05:54:22.573Z,17.43
2018-07-07T05:56:51.586Z,17.68
2018-07-07T05:59:20.593Z,17.93
2018-07-07T06:01:50.295Z,18.20
2018-07-07T06:04:19.329Z,18.49
2018-07-07T06:06:48.279Z,18.79
2018-07-07T06:09:17.290Z,19.04
2018-07-07T06:11:46.166Z,19.13
2018-07-07T06:14:16.286Z,19.53
2018-07-07T06:16:45.059Z,19.89
2018-07-07T06:19:14.043Z,20.20
2018-07-07T06:21:43.034Z,20.53
2018-07-07T06:24:12.370Z,20.97
2018-07-07T06:26:41.405Z,21.46
2018-07-07T06:29:10.434Z,21.90
2018-07-07T06:31:39.311Z,22.52
2018-07-07T06:34:08.218Z,24.47
2018-07-07T06:36:37.197Z,26.64
2018-07-07T06:39:06.762Z,28.53
2018-07-07T06:41:35.698Z,29.60
2018-07-07T06:44:07.459Z,30.66
2018-07-07T06:46:36.580Z,31.05
2018-07-07T06:49:05.560Z,31.65
2018-07-07T06:51:34.593Z,32.53
2018-07-07T06:54:06.113Z,33.22
2018-07-07T06:56:35.032Z,33.82
2018-07-07T06:59:07.148Z,33.71
2018-07-07T07:01:36.143Z,33.78
2018-07-07T07:04:05.035Z,34.26
2018-07-07T07:06:34.176Z,34.27
2018-07-07T07:09:03.125Z,34.62
2018-07-07T07:11:32.089Z,35.00
2018-07-07T07:14:04.975Z,35.53
2018-07-07T07:16:33.837Z,35.27
2018-07-07T07:19:02.998Z,35.35
2018-07-07T07:21:31.983Z,35.23
2018-07-07T07:24:01.109Z,35.63
2018-07-07T07:26:30.108Z,36.43
2018-07-07T07:28:59.110Z,36.90
2018-07-07T07:31:28.050Z,36.87
2018-07-07T07:33:57.101Z,36.67
2018-07-07T07:36:51.736Z,35.83
2018-07-07T07:39:20.700Z,35.88
2018-07-07T07:41:49.640Z,36.63
2018-07-07T07:44:18.641Z,36.28
2018-07-07T07:46:47.641Z,36.45
2018-07-07T07:49:16.643Z,37.05
2018-07-07T07:51:45.529Z,37.36
2018-07-07T07:54:16.857Z,37.20
2018-07-07T07:56:45.866Z,37.46
2018-07-07T07:59:17.889Z,37.41
2018-07-07T08:01:46.905Z,38.23
2018-07-07T08:04:15.978Z,38.61
2018-07-07T08:06:44.991Z,38.60
2018-07-07T08:09:13.985Z,38.27
2018-07-07T08:11:42.954Z,38.37
2018-07-07T08:14:12.122Z,38.29
2018-07-07T08:16:41.169Z,38.20
2018-07-07T08:19:10.074Z,38.96
2018-07-07T08:21:38.977Z,39.52
2018-07-07T08:24:07.895Z,39.78
2018-07-07T08:26:36.806Z,39.54
2018-07-07T08:29:08.071Z,38.72
2018-07-07T08:31:37.109Z,38.98
2018-07-07T08:34:05.970Z,38.63
2018-07-07T08:36:39.556Z,39.32
2018-07-07T08:39:08.483Z,39.83
2018-07-07T08:41:37.579Z,40.54
2018-07-07T08:44:06.561Z,40.04
2018-07-07T08:46:35.610Z,39.44
2018-07-07T08:49:04.683Z,39.20
2018-07-07T08:51:33.694Z,40.21
2018-07-07T08:54:05.540Z,40.06
2018-07-07T08:56:34.508Z,38.90
2018-07-07T08:59:03.617Z,38.67
2018-07-07T09:01:32.617Z,39.73
2018-07-07T09:04:01.677Z,39.40
2018-07-07T09:06:30.769Z,40.24
2018-07-07T09:08:59.705Z,39.13
2018-07-07T09:11:28.885Z,38.67
2018-07-07T09:13:57.795Z,38.55
2018-07-07T09:16:29.002Z,39.14
2018-07-07T09:18:58.310Z,39.02
2018-07-07T09:21:27.283Z,38.81
2018-07-07T09:23:56.386Z,39.97
2018-07-07T09:26:25.327Z,40.44
2018-07-07T09:28:54.377Z,40.43
2018-07-07T09:31:23.399Z,39.57
2018-07-07T09:33:54.764Z,39.55
2018-07-07T09:36:25.671Z,40.89
2018-07-07T09:38:54.622Z,40.37
2018-07-07T09:41:23.568Z,40.57
2018-07-07T09:43:52.547Z,39.99
2018-07-07T09:46:21.632Z,39.95
2018-07-07T09:48:50.618Z,41.08
2018-07-07T09:51:21.474Z,40.45
2018-07-07T09:53:50.388Z,39.71
2018-07-07T09:56:19.490Z,40.03
2018-07-07T09:58:48.447Z,39.40
2018-07-07T10:01:17.412Z,39.79
2018-07-07T10:03:46.343Z,39.69
2018-07-07T10:06:18.398Z,39.70
2018-07-07T10:08:47.498Z,39.66
2018-07-07T10:11:16.488Z,39.18
2018-07-07T10:13:45.418Z,39.03
2018-07-07T10:16:14.807Z,39.31
2018-07-07T10:18:46.427Z,39.40
2018-07-07T10:21:17.164Z,40.29
2018-07-07T10:23:46.173Z,39.63
2018-07-07T10:26:15.202Z,39.98
2018-07-07T10:28:46.394Z,40.11
2018-07-07T10:31:15.413Z,39.31
2018-07-07T10:33:44.392Z,38.93
2018-07-07T10:36:13.391Z,39.44
2018-07-07T10:38:42.388Z,39.44
2018-07-07T10:41:11.275Z,39.23
2018-07-07T10:43:40.362Z,39.44
2018-07-07T10:46:09.461Z,39.62
2018-07-07T10:48:38.260Z,39.35
2018-07-07T10:51:07.247Z,41.15
2018-07-07T10:53:36.260Z,39.36
2018-07-07T10:56:05.238Z,39.27
2018-07-07T10:58:34.353Z,39.06
2018-07-07T11:01:06.102Z,39.37
2018-07-07T11:03:35.090Z,40.13
2018-07-07T11:06:04.106Z,39.99
2018-07-07T11:08:34.928Z,39.70
2018-07-07T11:11:03.926Z,39.40
2018-07-07T11:13:33.120Z,39.66
2018-07-07T11:16:02.275Z,39.79
2018-07-07T11:18:31.336Z,39.28
2018-07-07T11:21:00.475Z,40.37
2018-07-07T11:23:29.496Z,39.34
2018-07-07T11:26:00.313Z,39.18
2018-07-07T11:28:32.127Z,39.62
2018-07-07T11:31:06.023Z,39.62
2018-07-07T11:33:35.278Z,39.50
2018-07-07T11:36:04.234Z,39.01
2018-07-07T11:38:33.283Z,38.46
2018-07-07T11:41:02.203Z,38.74
2018-07-07T11:43:31.290Z,38.89
2018-07-07T11:46:02.446Z,38.65
2018-07-07T11:48:31.627Z,38.60
2018-07-07T11:51:00.554Z,38.39
2018-07-07T11:53:32.357Z,39.74
2018-07-07T11:56:01.377Z,38.76
2018-07-07T11:58:30.470Z,38.71
2018-07-07T12:00:59.531Z,38.72
2018-07-07T12:03:28.657Z,38.20
2018-07-07T12:05:57.564Z,37.84
2018-07-07T12:08:26.591Z,37.27
2018-07-07T12:10:58.279Z,36.71
2018-07-07T12:13:27.220Z,36.20
2018-07-07T12:15:56.287Z,35.48
2018-07-07T12:18:27.986Z,35.02
2018-07-07T12:20:57.000Z,34.54
2018-07-07T12:23:25.859Z,34.47
2018-07-07T12:26:01.027Z,34.25
2018-07-07T12:28:29.922Z,34.15
2018-07-07T12:30:58.884Z,34.00
2018-07-07T12:33:30.785Z,33.91
2018-07-07T12:36:02.857Z,33.77
2018-07-07T12:38:31.958Z,33.62
2018-07-07T12:41:00.845Z,33.48
2018-07-07T12:43:29.879Z,33.14
2018-07-07T12:45:58.917Z,33.16
2018-07-07T12:48:27.766Z,32.93
2018-07-07T12:50:56.765Z,32.89
2018-07-07T12:53:27.907Z,32.91
2018-07-07T12:55:56.998Z,32.61
2018-07-07T12:58:25.869Z,32.59
2018-07-07T13:00:54.862Z,32.53
2018-07-07T13:03:23.818Z,32.37
2018-07-07T13:05:52.753Z,32.14
2018-07-07T13:08:21.808Z,32.12
2018-07-07T13:10:50.732Z,32.20
2018-07-07T13:13:22.513Z,32.10
2018-07-07T13:15:51.494Z,32.10
2018-07-07T13:18:22.130Z,32.11
2018-07-07T13:20:49.406Z,32.11
2018-07-07T13:23:18.454Z,32.33
2018-07-07T13:25:47.423Z,32.32
2018-07-07T13:28:17.084Z,32.16
2018-07-07T13:30:46.039Z,32.20
2018-07-07T13:33:15.113Z,32.16
2018-07-07T13:35:46.622Z,32.05
2018-07-07T13:40:44.454Z,32.12
2018-07-07T13:43:13.514Z,32.13
2018-07-07T13:45:42.397Z,32.07
2018-07-07T13:48:38.712Z,32.01
2018-07-07T13:55:07.456Z,31.70
2018-07-07T13:58:05.606Z,31.57
2018-07-07T14:04:22.622Z,31.58
2018-07-07T14:07:10.724Z,31.58
2018-07-07T14:10:17.581Z,31.60
2018-07-07T14:13:34.444Z,31.79
2018-07-07T14:16:31.084Z,31.67
2018-07-07T14:25:51.729Z,31.47
2018-07-07T14:28:38.463Z,31.40
2018-07-07T14:31:17.265Z,31.31
2018-07-07T14:34:47.338Z,31.22
2018-07-07T14:37:54.936Z,31.14
2018-07-07T14:40:59.683Z,31.13
2018-07-07T14:46:51.163Z,30.93
2018-07-07T14:49:43.953Z,30.76
2018-07-07T14:52:52.823Z,30.75
2018-07-07T14:55:45.397Z,30.62
2018-07-07T14:59:00.990Z,30.51
2018-07-07T15:05:56.463Z,30.28
2018-07-07T15:08:43.983Z,30.26
2018-07-07T15:15:19.090Z,30.11
2018-07-07T15:21:39.339Z,30.01
2018-07-07T15:31:51.801Z,29.63
2018-07-07T15:35:19.988Z,29.59
2018-07-07T15:41:54.677Z,29.38
2018-07-07T15:48:38.553Z,29.40
2018-07-07T15:51:41.819Z,29.30
2018-07-07T15:54:42.666Z,29.18
2018-07-07T16:08:52.923Z,29.05
2018-07-07T16:22:14.839Z,28.28
2018-07-07T16:25:27.620Z,28.22
2018-07-07T16:29:31.767Z,28.15
2018-07-07T16:31:48.588Z,28.15
2018-07-07T16:34:54.702Z,28.03
2018-07-07T16:38:22.229Z,27.66
2018-07-07T16:41:51.561Z,27.73
2018-07-07T16:44:46.940Z,27.73
2018-07-07T16:50:57.587Z,27.67
2018-07-07T16:54:18.620Z,27.58
2018-07-07T16:56:56.828Z,27.49
2018-07-07T17:00:28.735Z,27.40
2018-07-07T17:03:30.397Z,27.25
2018-07-07T17:06:21.083Z,27.20
2018-07-07T17:12:46.299Z,27.03
2018-07-07T17:16:03.255Z,26.98
2018-07-07T17:22:20.495Z,26.74
2018-07-07T17:25:35.889Z,26.55
2018-07-07T17:29:05.537Z,26.50
2018-07-07T17:42:11.712Z,26.26
2018-07-07T17:45:35.165Z,26.22
2018-07-07T17:48:35.040Z,26.18
2018-07-07T17:51:30.022Z,26.05
2018-07-07T17:54:23.208Z,25.97
2018-07-07T17:57:34.760Z,25.76
2018-07-07T18:00:12.289Z,25.67
2018-07-07T18:03:24.728Z,25.64
2018-07-07T18:06:18.839Z,25.51
2018-07-07T18:09:23.980Z,25.41
2018-07-07T18:14:30.670Z,25.36
2018-07-07T18:15:40.037Z,25.24
2018-07-07T18:19:10.634Z,25.22
2018-07-07T18:21:48.671Z,25.43
2018-07-07T18:25:01.519Z,25.40
2018-07-07T18:28:18.593Z,25.47
2018-07-07T18:31:25.062Z,25.39
2018-07-07T18:34:31.791Z,25.33
2018-07-07T18:37:58.867Z,25.20
2018-07-07T18:41:11.208Z,25.09
2018-07-07T18:44:39.819Z,24.99
2018-07-07T18:48:24.916Z,24.92
2018-07-07T18:58:06.859Z,24.72
2018-07-07T19:01:16.624Z,24.68
2018-07-07T19:04:12.943Z,24.55
2018-07-07T19:07:22.481Z,24.46
2018-07-07T19:10:30.634Z,24.38
2018-07-07T19:13:09.547Z,24.35
2018-07-07T19:16:03.369Z,24.31
2018-07-07T19:19:22.876Z,24.14
2018-07-07T19:23:23.435Z,24.04
2018-07-07T19:26:06.925Z,23.90
2018-07-07T19:29:01.770Z,23.97
2018-07-07T19:32:37.119Z,23.77
2018-07-07T19:35:21.913Z,23.64
2018-07-07T19:37:53.212Z,23.48
2018-07-07T19:40:22.432Z,23.38
2018-07-07T19:42:51.644Z,23.32
2018-07-07T19:45:20.746Z,23.46
2018-07-07T19:47:49.807Z,23.29
2018-07-07T19:50:18.833Z,23.20
2018-07-07T19:52:47.779Z,23.11
2018-07-07T19:55:17.043Z,23.05
2018-07-07T19:57:45.999Z,22.89
2018-07-07T20:00:15.152Z,22.76
2018-07-07T20:02:44.369Z,22.61
2018-07-07T20:05:14.859Z,22.57
2018-07-07T20:07:42.336Z,22.54
2018-07-07T20:10:11.480Z,22.45
2018-07-07T20:12:40.531Z,22.38
2018-07-07T20:15:09.659Z,22.34
2018-07-07T20:17:59.829Z,22.26
2018-07-07T20:20:49.009Z,22.18
2018-07-07T20:23:18.386Z,22.04
2018-07-07T20:26:05.770Z,21.96
2018-07-07T20:28:52.718Z,21.93
2018-07-07T20:31:21.756Z,21.85
2018-07-07T20:33:50.960Z,21.79
2018-07-07T20:36:20.177Z,21.75
2018-07-07T20:38:49.230Z,21.68
2018-07-07T20:41:18.191Z,21.62
2018-07-07T20:43:49.882Z,21.59
2018-07-07T20:46:19.004Z,21.58
2018-07-07T20:48:48.020Z,21.48
2018-07-07T20:51:17.127Z,21.43
2018-07-07T20:53:46.236Z,21.39
2018-07-07T20:56:15.238Z,21.33
2018-07-07T20:58:46.514Z,21.27
2018-07-07T21:01:15.533Z,21.23
2018-07-07T21:03:44.761Z,21.20
2018-07-07T21:06:13.714Z,21.16
2018-07-07T21:08:42.693Z,21.10
2018-07-07T21:11:11.805Z,21.00
2018-07-07T21:13:40.781Z,20.90
2018-07-07T21:16:09.831Z,20.91
2018-07-07T21:18:39.044Z,20.81
2018-07-07T21:21:11.181Z,20.70
2018-07-07T21:23:40.089Z,20.61
2018-07-07T21:26:09.197Z,20.51
2018-07-07T21:28:38.134Z,20.39
2018-07-07T21:31:10.214Z,20.40
2018-07-07T21:33:39.259Z,20.36
2018-07-07T21:36:08.343Z,20.25
2018-07-07T21:38:37.519Z,20.19
2018-07-07T21:41:06.749Z,20.13
2018-07-07T21:43:35.924Z,20.11
2018-07-07T21:46:05.018Z,20.10
2018-07-07T21:48:34.057Z,20.02
2018-07-07T21:51:03.055Z,20.20
2018-07-07T21:53:34.424Z,19.98
2018-07-07T21:56:03.671Z,19.94
2018-07-07T21:58:32.812Z,20.14
2018-07-07T22:01:38.136Z,19.94
2018-07-07T22:04:28.057Z,19.80
2018-07-07T22:07:17.538Z,19.78
2018-07-07T22:09:46.661Z,19.72
2018-07-07T22:12:15.704Z,19.57
2018-07-07T22:14:44.657Z,19.52
2018-07-07T22:17:13.841Z,19.48
2018-07-07T22:19:42.770Z,19.38
2018-07-07T22:22:12.337Z,19.46
2018-07-07T22:24:42.500Z,19.20
2018-07-07T22:27:13.020Z,19.11
2018-07-07T22:29:42.184Z,19.03
2018-07-07T22:32:23.816Z,18.97
2018-07-07T22:34:53.060Z,18.96
2018-07-07T22:37:22.208Z,18.92
2018-07-07T22:39:51.323Z,18.92
2018-07-07T22:42:20.333Z,18.85
2018-07-07T22:44:51.991Z,18.79
2018-07-07T22:47:20.993Z,18.72
2018-07-07T22:49:50.122Z,18.59
2018-07-07T22:52:19.643Z,18.49
2018-07-07T22:55:14.645Z,18.44
2018-07-07T23:00:43.444Z,18.26
2018-07-07T23:10:29.768Z,17.81
2018-07-07T23:13:00.988Z,17.77
2018-07-07T23:15:31.037Z,17.73
2018-07-07T23:18:00.634Z,17.74
2018-07-07T23:20:30.704Z,17.76
2018-07-07T23:23:00.296Z,17.73
2018-07-07T23:25:49.395Z,17.73
2018-07-07T23:28:30.331Z,17.68
2018-07-07T23:30:59.366Z,17.61
2018-07-07T23:33:48.341Z,17.63
2018-07-07T23:36:17.576Z,17.77
2018-07-07T23:38:49.113Z,17.49
2018-07-07T23:41:18.316Z,17.39
2018-07-07T23:43:50.395Z,17.65
2018-07-07T23:46:19.449Z,17.36
2018-07-07T23:48:48.557Z,17.25
2018-07-07T23:51:17.524Z,17.17
2018-07-07T23:53:46.545Z,17.12
2018-07-07T23:56:15.692Z,17.08
2018-07-07T23:58:44.768Z,17.02
